createdAt,value
2022-10-01T00:00:12.041Z,97445.48
2022-10-01T00:02:45.134Z,97444.39
2022-10-01T00:05:19.339Z,97438.55
2022-10-01T00:07:51.410Z,97432.17
2022-10-01T00:10:25.980Z,97426.80
2022-10-01T00:12:59.267Z,97417.30
2022-10-01T00:15:32.950Z,97418.15
2022-10-01T00:18:05.269Z,97415.56
2022-10-01T00:20:40.605Z,97409.30
2022-10-01T00:23:12.838Z,97405.91
2022-10-01T00:25:45.780Z,97411.16
2022-10-01T00:28:20.704Z,97419.51
2022-10-01T00:30:52.983Z,97421.36
2022-10-01T00:33:25.901Z,97426.83
2022-10-01T00:36:00.270Z,97431.71
2022-10-01T00:38:32.799Z,97415.86
2022-10-01T00:41:06.351Z,97414.89
2022-10-01T00:43:39.911Z,97414.28
2022-10-01T00:46:21.519Z,97418.55
2022-10-01T00:49:01.808Z,97415.84
2022-10-01T00:51:40.121Z,97414.66
2022-10-01T00:54:15.645Z,97416.18
2022-10-01T00:56:48.701Z,97417.02
2022-10-01T00:59:24.173Z,97421.09
2022-10-01T01:01:56.948Z,97418.42
2022-10-01T01:04:29.550Z,97414.23
2022-10-01T01:07:05.050Z,97419.05
2022-10-01T01:09:40.398Z,97414.73
2022-10-01T01:12:21.571Z,97413.96
2022-10-01T01:15:05.199Z,97417.05
2022-10-01T01:17:49.913Z,97418.15
2022-10-01T01:20:38.169Z,97414.58
2022-10-01T01:23:30.757Z,97410.41
2022-10-01T01:26:14.349Z,97410.10
2022-10-01T01:28:52.881Z,97404.63
2022-10-01T01:31:31.325Z,97398.79
2022-10-01T01:34:08.911Z,97402.48
2022-10-01T01:36:44.740Z,97403.86
2022-10-01T01:39:19.661Z,97403.52
2022-10-01T01:41:58.590Z,97406.55
2022-10-01T01:44:35.140Z,97413.04
2022-10-01T01:47:10.811Z,97412.81
2022-10-01T01:49:44.520Z,97407.92
2022-10-01T01:52:37.141Z,97407.86
2022-10-01T01:55:12.341Z,97406.23
2022-10-01T01:57:47.460Z,97403.74
2022-10-01T02:00:19.978Z,97406.58
2022-10-01T02:02:55.552Z,97412.55
2022-10-01T02:05:32.080Z,97413.20
2022-10-01T02:08:27.030Z,97416.06
2022-10-01T02:11:28.041Z,97422.42
2022-10-01T02:14:12.274Z,97422.92
2022-10-01T02:16:58.320Z,97430.83
2022-10-01T02:19:37.741Z,97430.80
2022-10-01T02:22:19.421Z,97433.75
2022-10-01T02:24:57.351Z,97435.45
2022-10-01T02:27:34.752Z,97433.98
2022-10-01T02:30:11.447Z,97433.55
2022-10-01T02:32:45.910Z,97435.16
2022-10-01T02:35:21.052Z,97433.77
2022-10-01T02:37:56.833Z,97437.57
2022-10-01T02:40:36.881Z,97441.83
2022-10-01T02:43:13.054Z,97442.64
2022-10-01T02:45:48.558Z,97439.79
2022-10-01T02:48:21.212Z,97434.66
2022-10-01T02:50:57.039Z,97435.43
2022-10-01T02:53:34.720Z,97441.26
2022-10-01T02:56:12.233Z,97443.41
2022-10-01T02:58:45.272Z,97438.45
2022-10-01T03:01:17.737Z,97439.34
2022-10-01T03:03:50.249Z,97441.73
2022-10-01T03:06:22.330Z,97442.27
2022-10-01T03:08:55.703Z,97440.98
2022-10-01T03:11:28.159Z,97438.55
2022-10-01T03:14:03.450Z,97436.14
2022-10-01T03:16:36.040Z,97437.88
2022-10-01T03:19:08.810Z,97446.63
2022-10-01T03:21:40.931Z,97452.70
2022-10-01T03:24:13.481Z,97456.34
2022-10-01T03:26:48.536Z,97459.52
2022-10-01T03:29:21.062Z,97459.31
2022-10-01T03:31:53.377Z,97459.27
2022-10-01T03:34:27.070Z,97453.99
2022-10-01T03:36:57.319Z,97449.73
2022-10-01T03:39:29.832Z,97449.50
2022-10-01T03:42:01.950Z,97446.69
2022-10-01T03:44:34.431Z,97443.91
2022-10-01T03:47:06.758Z,97443.96
2022-10-01T03:49:39.301Z,97442.42
2022-10-01T03:52:11.879Z,97448.98
2022-10-01T03:54:44.160Z,97450.52
2022-10-01T03:57:16.600Z,97454.99
2022-10-01T03:59:48.940Z,97455.04
2022-10-01T04:02:22.532Z,97449.77
2022-10-01T04:04:55.017Z,97452.01
2022-10-01T04:07:27.250Z,97451.64
2022-10-01T04:10:00.161Z,97447.42
2022-10-01T04:12:32.619Z,97444.33
2022-10-01T04:15:05.750Z,97439.48
2022-10-01T04:17:43.800Z,97439.80
2022-10-01T04:20:19.733Z,97432.06
2022-10-01T04:22:52.321Z,97430.48
2022-10-01T04:25:25.460Z,97423.43
2022-10-01T04:28:03.419Z,97422.98
2022-10-01T04:30:37.850Z,97420.21
2022-10-01T04:33:13.759Z,97418.71
2022-10-01T04:35:47.376Z,97412.30
2022-10-01T04:38:21.132Z,97414.02
2022-10-01T04:40:53.896Z,97417.07
2022-10-01T04:43:26.742Z,97412.20
2022-10-01T04:45:59.981Z,97414.44
2022-10-01T04:48:33.208Z,97408.55
2022-10-01T04:51:06.071Z,97398.54
2022-10-01T04:53:39.253Z,97396.20
2022-10-01T04:56:12.370Z,97393.86
2022-10-01T04:58:45.081Z,97401.73
2022-10-01T05:01:18.221Z,97406.06
2022-10-01T05:03:50.842Z,97404.80
2022-10-01T05:06:23.790Z,97402.98
2022-10-01T05:08:56.762Z,97406.64
2022-10-01T05:11:30.642Z,97411.93
2022-10-01T05:14:03.330Z,97414.06
2022-10-01T05:16:36.427Z,97420.94
2022-10-01T05:19:09.312Z,97428.04
2022-10-01T05:21:45.321Z,97421.36
2022-10-01T05:24:19.814Z,97419.55
2022-10-01T05:26:54.505Z,97422.13
2022-10-01T05:29:28.187Z,97420.15
2022-10-01T05:32:01.645Z,97421.34
2022-10-01T05:34:34.320Z,97418.70
2022-10-01T05:37:07.830Z,97425.50
2022-10-01T05:39:40.539Z,97426.04
2022-10-01T05:42:13.538Z,97429.87
2022-10-01T05:44:47.631Z,97429.34
2022-10-01T05:47:21.927Z,97429.55
2022-10-01T05:49:54.460Z,97429.92
2022-10-01T05:52:27.383Z,97427.75
2022-10-01T05:55:00.231Z,97432.66
2022-10-01T05:57:33.540Z,97439.85
2022-10-01T06:00:07.981Z,97438.61
2022-10-01T06:02:44.682Z,97438.16
2022-10-01T06:05:20.301Z,97435.76
2022-10-01T06:07:53.910Z,97431.11
2022-10-01T06:10:28.448Z,97427.55
2022-10-01T06:13:05.776Z,97427.38
2022-10-01T06:15:41.486Z,97426.70
2022-10-01T06:18:16.253Z,97427.66
2022-10-01T06:20:48.981Z,97428.41
2022-10-01T06:23:23.940Z,97426.34
2022-10-01T06:25:56.835Z,97422.23
2022-10-01T06:28:30.125Z,97420.80
2022-10-01T06:31:04.779Z,97414.71
2022-10-01T06:33:37.957Z,97418.15
2022-10-01T06:36:13.351Z,97414.10
2022-10-01T06:38:46.361Z,97413.69
2022-10-01T06:41:18.968Z,97416.27
2022-10-01T06:43:52.200Z,97415.61
2022-10-01T06:46:24.998Z,97415.89
2022-10-01T06:48:58.111Z,97414.34
2022-10-01T06:51:47.628Z,97418.52
2022-10-01T06:54:20.558Z,97417.17
2022-10-01T06:56:53.922Z,97416.27
2022-10-01T06:59:27.380Z,97412.34
2022-10-01T07:02:03.264Z,97414.85
2022-10-01T07:04:35.991Z,97414.96
2022-10-01T07:07:09.510Z,97407.36
2022-10-01T07:09:42.872Z,97407.16
2022-10-01T07:12:15.524Z,97404.96
2022-10-01T07:14:48.908Z,97410.34
2022-10-01T07:17:21.851Z,97411.72
2022-10-01T07:19:55.658Z,97413.46
2022-10-01T07:22:30.371Z,97407.45
2022-10-01T07:25:03.891Z,97408.98
2022-10-01T07:27:36.896Z,97411.77
2022-10-01T07:30:12.010Z,97414.13
2022-10-01T07:32:49.240Z,97409.59
2022-10-01T07:35:23.059Z,97411.01
2022-10-01T07:37:56.075Z,97409.75
2022-10-01T07:40:28.912Z,97408.81
2022-10-01T07:43:01.870Z,97406.41
2022-10-01T07:45:34.708Z,97400.31
2022-10-01T07:48:08.545Z,97396.76
2022-10-01T07:50:41.382Z,97391.58
2022-10-01T07:53:14.144Z,97385.66
2022-10-01T07:55:47.411Z,97387.35
2022-10-01T07:58:24.377Z,97387.46
2022-10-01T08:00:59.027Z,97388.30
2022-10-01T08:03:31.933Z,97385.13
2022-10-01T08:06:07.168Z,97389.34
2022-10-01T08:08:40.056Z,97387.41
2022-10-01T08:11:15.036Z,97387.98
2022-10-01T08:13:48.597Z,97386.80
2022-10-01T08:16:23.396Z,97382.90
2022-10-01T08:18:56.193Z,97380.58
2022-10-01T08:21:29.790Z,97373.54
2022-10-01T08:24:02.370Z,97376.43
2022-10-01T08:26:35.126Z,97377.20
2022-10-01T08:29:08.637Z,97381.52
2022-10-01T08:31:43.481Z,97383.52
2022-10-01T08:34:16.470Z,97382.16
2022-10-01T08:36:51.480Z,97375.45
2022-10-01T08:39:24.210Z,97368.96
2022-10-01T08:42:06.812Z,97369.60
2022-10-01T08:44:43.120Z,97366.59
2022-10-01T08:47:20.736Z,97369.16
2022-10-01T08:49:57.700Z,97365.02
2022-10-01T08:52:35.899Z,97365.34
2022-10-01T08:55:13.379Z,97364.14
2022-10-01T08:57:53.690Z,97361.39
2022-10-01T09:00:26.688Z,97358.89
2022-10-01T09:03:05.755Z,97359.05
2022-10-01T09:05:51.600Z,97359.13
2022-10-01T09:08:45.510Z,97356.66
2022-10-01T09:11:29.499Z,97350.30
2022-10-01T09:14:16.101Z,97348.39
2022-10-01T09:16:56.780Z,97344.55
2022-10-01T09:19:47.744Z,97344.27
2022-10-01T09:22:29.460Z,97344.67
2022-10-01T09:25:11.806Z,97341.06
2022-10-01T09:27:44.916Z,97344.42
2022-10-01T09:30:18.419Z,97341.45
2022-10-01T09:32:57.100Z,97339.21
2022-10-01T09:35:38.799Z,97333.14
2022-10-01T09:38:20.340Z,97330.95
2022-10-01T09:40:58.009Z,97325.51
2022-10-01T09:43:33.520Z,97325.32
2022-10-01T09:46:13.822Z,97326.12
2022-10-01T09:48:53.580Z,97327.55
2022-10-01T09:51:33.357Z,97329.83
2022-10-01T09:54:18.631Z,97328.62
2022-10-01T09:56:57.380Z,97329.34
2022-10-01T09:59:57.312Z,97323.20
2022-10-01T10:02:34.208Z,97323.92
2022-10-01T10:05:09.811Z,97319.13
2022-10-01T10:07:47.918Z,97310.15
2022-10-01T10:10:27.808Z,97315.31
2022-10-01T10:13:04.376Z,97316.21
2022-10-01T10:15:41.524Z,97314.89
2022-10-01T10:18:21.650Z,97313.66
2022-10-01T10:20:58.630Z,97311.61
2022-10-01T10:23:31.990Z,97310.79
2022-10-01T10:26:09.591Z,97306.63
2022-10-01T10:28:49.527Z,97302.20
2022-10-01T10:31:27.760Z,97291.98
2022-10-01T10:34:08.502Z,97282.45
2022-10-01T10:36:42.564Z,97275.09
2022-10-01T10:39:25.280Z,97268.35
2022-10-01T10:42:00.500Z,97271.55
2022-10-01T10:44:37.832Z,97264.98
2022-10-01T10:47:15.318Z,97260.27
2022-10-01T10:49:50.519Z,97251.95
2022-10-01T10:52:30.313Z,97249.95
2022-10-01T10:55:20.730Z,97248.84
2022-10-01T10:57:57.589Z,97245.87
2022-10-01T11:00:30.799Z,97240.75
2022-10-01T11:03:07.420Z,97232.10
2022-10-01T11:05:45.583Z,97228.52
2022-10-01T11:08:25.359Z,97223.39
2022-10-01T11:11:09.501Z,97218.08
2022-10-01T11:14:02.003Z,97214.77
2022-10-01T11:16:48.410Z,97206.35
2022-10-01T11:19:40.310Z,97198.58
2022-10-01T11:22:31.156Z,97190.93
2022-10-01T11:25:27.882Z,97188.45
2022-10-01T11:28:09.992Z,97180.59
2022-10-01T11:30:55.745Z,97171.83
2022-10-01T11:33:45.281Z,97161.87
2022-10-01T11:36:25.989Z,97156.50
2022-10-01T11:39:04.252Z,97155.38
2022-10-01T11:41:40.658Z,97153.58
2022-10-01T11:44:22.431Z,97151.17
2022-10-01T11:47:01.961Z,97154.73
2022-10-01T11:49:45.988Z,97147.41
2022-10-01T11:52:34.360Z,97144.03
2022-10-01T11:55:33.221Z,97138.92
2022-10-01T11:58:31.103Z,97132.98
2022-10-01T12:01:16.634Z,97126.48
2022-10-01T12:04:02.501Z,97125.66
2022-10-01T12:06:39.750Z,97122.06
2022-10-01T12:09:21.720Z,97119.88
2022-10-01T12:12:07.094Z,97116.76
2022-10-01T12:14:46.445Z,97114.47
2022-10-01T12:17:27.748Z,97116.87
2022-10-01T12:20:04.691Z,97114.91
2022-10-01T12:22:42.631Z,97114.20
2022-10-01T12:25:17.340Z,97110.80
2022-10-01T12:28:02.030Z,97115.06
2022-10-01T12:30:43.306Z,97113.42
2022-10-01T12:33:51.568Z,97109.80
2022-10-01T12:36:36.248Z,97106.92
2022-10-01T12:39:29.699Z,97101.85
2022-10-01T12:42:20.042Z,97097.44
2022-10-01T12:45:04.419Z,97091.54
2022-10-01T12:47:49.610Z,97086.64
2022-10-01T12:50:37.360Z,97084.10
2022-10-01T12:53:28.172Z,97079.21
2022-10-01T12:56:17.949Z,97069.58
2022-10-01T12:59:14.581Z,97062.99
2022-10-01T13:02:08.232Z,97064.89
2022-10-01T13:05:05.583Z,97061.48
2022-10-01T13:07:49.376Z,97060.64
2022-10-01T13:10:42.620Z,97055.60
2022-10-01T13:13:21.299Z,97052.98
2022-10-01T13:16:04.398Z,97051.48
2022-10-01T13:18:49.633Z,97051.53
2022-10-01T13:21:34.182Z,97051.55
2022-10-01T13:24:16.725Z,97050.14
2022-10-01T13:26:53.951Z,97044.45
2022-10-01T13:29:42.951Z,97041.77
2022-10-01T13:32:34.069Z,97040.00
2022-10-01T13:35:25.920Z,97032.97
2022-10-01T13:37:59.826Z,97030.50
2022-10-01T13:40:34.340Z,97029.98
2022-10-01T13:43:19.651Z,97033.95
2022-10-01T13:46:05.604Z,97033.13
2022-10-01T13:48:49.237Z,97024.98
2022-10-01T13:51:23.241Z,97025.52
2022-10-01T13:54:01.641Z,97021.13
2022-10-01T13:56:37.527Z,97017.31
2022-10-01T13:59:32.366Z,97016.11
2022-10-01T14:02:05.679Z,97015.05
2022-10-01T14:04:43.770Z,97010.28
2022-10-01T14:07:23.622Z,97010.45
2022-10-01T14:10:00.172Z,97010.94
2022-10-01T14:12:52.782Z,97009.17
2022-10-01T14:15:46.248Z,97005.56
2022-10-01T14:18:22.722Z,96999.38
2022-10-01T14:21:05.401Z,96997.44
2022-10-01T14:23:45.774Z,96992.21
2022-10-01T14:26:25.039Z,96988.98
2022-10-01T14:29:06.232Z,96984.39
2022-10-01T14:31:51.333Z,96984.53
2022-10-01T14:34:52.912Z,96979.75
2022-10-01T14:37:26.131Z,96978.67
2022-10-01T14:40:19.968Z,96969.00
2022-10-01T14:43:00.509Z,96972.36
2022-10-01T14:45:33.580Z,96967.20
2022-10-01T14:48:08.758Z,96963.59
2022-10-01T14:50:45.624Z,96969.13
2022-10-01T14:53:23.311Z,96962.62
2022-10-01T14:55:59.091Z,96963.55
2022-10-01T14:58:35.730Z,96961.80
2022-10-01T15:01:19.006Z,96958.34
2022-10-01T15:03:53.686Z,96955.06
2022-10-01T15:06:30.391Z,96951.88
2022-10-01T15:09:20.398Z,96948.21
2022-10-01T15:11:54.556Z,96938.80
2022-10-01T15:14:29.750Z,96937.52
2022-10-01T15:17:06.733Z,96932.90
2022-10-01T15:19:46.488Z,96935.34
2022-10-01T15:22:21.838Z,96932.06
2022-10-01T15:24:57.431Z,96934.52
2022-10-01T15:27:32.550Z,96930.59
2022-10-01T15:30:05.621Z,96929.06
2022-10-01T15:32:39.028Z,96928.32
2022-10-01T15:35:21.334Z,96931.90
2022-10-01T15:37:56.081Z,96928.05
2022-10-01T15:40:35.810Z,96926.52
2022-10-01T15:43:28.410Z,96928.52
2022-10-01T15:46:33.665Z,96927.27
2022-10-01T15:49:20.152Z,96930.66
2022-10-01T15:52:13.390Z,96922.66
2022-10-01T15:54:47.860Z,96917.87
2022-10-01T15:57:23.642Z,96915.34
2022-10-01T15:59:58.357Z,96913.20
2022-10-01T16:02:33.209Z,96908.05
2022-10-01T16:05:10.091Z,96904.00
2022-10-01T16:07:45.298Z,96903.96
2022-10-01T16:10:37.180Z,96897.31
2022-10-01T16:13:36.890Z,96890.96
2022-10-01T16:16:23.752Z,96886.36
2022-10-01T16:19:01.991Z,96880.27
2022-10-01T16:21:43.406Z,96880.42
2022-10-01T16:24:29.766Z,96881.12
2022-10-01T16:27:05.621Z,96886.58
2022-10-01T16:29:41.328Z,96886.02
2022-10-01T16:32:17.680Z,96890.38
2022-10-01T16:34:51.980Z,96887.91
2022-10-01T16:37:24.860Z,96884.15
2022-10-01T16:39:57.554Z,96884.30
2022-10-01T16:42:30.520Z,96880.71
2022-10-01T16:45:03.571Z,96878.25
2022-10-01T16:47:41.009Z,96878.06
2022-10-01T16:50:18.903Z,96879.23
2022-10-01T16:52:53.574Z,96874.33
2022-10-01T16:55:30.908Z,96880.92
2022-10-01T16:58:04.350Z,96879.60
2022-10-01T17:00:39.179Z,96877.64
2022-10-01T17:03:18.961Z,96878.05
2022-10-01T17:05:53.771Z,96873.98
2022-10-01T17:08:26.650Z,96874.31
2022-10-01T17:11:02.190Z,96871.68
2022-10-01T17:13:37.178Z,96873.09
2022-10-01T17:16:10.799Z,96870.02
2022-10-01T17:18:44.370Z,96866.71
2022-10-01T17:21:17.499Z,96866.45
2022-10-01T17:23:53.462Z,96863.01
2022-10-01T17:26:26.783Z,96856.70
2022-10-01T17:29:02.181Z,96859.13
2022-10-01T17:31:36.438Z,96859.45
2022-10-01T17:34:11.098Z,96855.42
2022-10-01T17:36:43.790Z,96855.10
2022-10-01T17:39:16.731Z,96850.75
2022-10-01T17:41:49.600Z,96844.48
2022-10-01T17:44:22.513Z,96846.84
2022-10-01T17:46:55.440Z,96845.67
2022-10-01T17:49:28.310Z,96847.70
2022-10-01T17:52:00.999Z,96849.66
2022-10-01T17:54:34.219Z,96851.22
2022-10-01T17:57:07.211Z,96849.85
2022-10-01T17:59:40.460Z,96849.48
2022-10-01T18:02:39.631Z,96844.68
2022-10-01T18:05:10.128Z,96844.96
2022-10-01T18:07:43.266Z,96837.95
2022-10-01T18:10:17.108Z,96839.52
2022-10-01T18:12:49.984Z,96838.24
2022-10-01T18:15:24.539Z,96837.48
2022-10-01T18:19:12.720Z,96842.39
2022-10-01T18:20:52.191Z,96845.30
2022-10-01T18:23:24.941Z,96840.50
2022-10-01T18:25:58.630Z,96841.75
2022-10-01T18:28:29.529Z,96837.11
2022-10-01T18:31:20.642Z,96840.61
2022-10-01T18:33:56.051Z,96842.13
2022-10-01T18:36:43.700Z,96845.00
2022-10-01T18:39:20.939Z,96844.67
2022-10-01T18:41:56.190Z,96844.79
2022-10-01T18:44:30.440Z,96844.58
2022-10-01T18:47:22.656Z,96852.08
2022-10-01T18:50:23.330Z,96852.53
2022-10-01T18:53:19.681Z,96854.05
2022-10-01T18:56:16.711Z,96858.21
2022-10-01T18:59:15.872Z,96855.62
2022-10-01T19:02:19.072Z,96848.95
2022-10-01T19:05:07.940Z,96846.38
2022-10-01T19:07:53.551Z,96848.61
2022-10-01T19:10:35.609Z,96848.80
2022-10-01T19:13:21.412Z,96848.50
2022-10-01T19:16:07.197Z,96848.80
2022-10-01T19:18:57.494Z,96849.45
2022-10-01T19:21:40.068Z,96851.36
2022-10-01T19:24:50.316Z,96856.32
2022-10-01T19:27:34.796Z,96854.52
2022-10-01T19:30:11.851Z,96855.86
2022-10-01T19:32:49.838Z,96865.06
2022-10-01T19:35:24.601Z,96861.64
2022-10-01T19:38:06.530Z,96859.79
2022-10-01T19:40:43.800Z,96865.02
2022-10-01T19:43:24.883Z,96873.16
2022-10-01T19:46:02.898Z,96874.50
2022-10-01T19:48:46.210Z,96881.27
2022-10-01T19:51:24.733Z,96886.77
2022-10-01T19:54:01.963Z,96890.20
2022-10-01T19:56:38.695Z,96896.63
2022-10-01T19:59:16.265Z,96904.11
2022-10-01T20:01:53.915Z,96904.48
2022-10-01T20:04:40.010Z,96906.60
2022-10-01T20:07:21.519Z,96912.72
2022-10-01T20:10:05.238Z,96913.77
2022-10-01T20:12:45.190Z,96920.69
2022-10-01T20:15:27.970Z,96925.30
2022-10-01T20:18:14.961Z,96926.05
2022-10-01T20:21:04.700Z,96931.31
2022-10-01T20:23:48.972Z,96933.58
2022-10-01T20:26:34.898Z,96940.93
2022-10-01T20:29:28.211Z,96943.89
2022-10-01T20:32:07.190Z,96944.17
2022-10-01T20:34:49.101Z,96948.10
2022-10-01T20:37:39.739Z,96950.95
2022-10-01T20:40:25.460Z,96950.95
2022-10-01T20:43:03.020Z,96952.22
2022-10-01T20:45:38.322Z,96954.06
2022-10-01T20:48:19.702Z,96956.77
2022-10-01T20:50:55.862Z,96953.13
2022-10-01T20:53:39.291Z,96953.71
2022-10-01T20:56:18.251Z,96958.77
2022-10-01T20:58:57.832Z,96956.40
2022-10-01T21:01:33.822Z,96955.11
2022-10-01T21:04:11.664Z,96954.92
2022-10-01T21:06:48.728Z,96956.08
2022-10-01T21:09:28.450Z,96954.77
2022-10-01T21:12:05.199Z,96960.62
2022-10-01T21:14:46.019Z,96960.44
2022-10-01T21:17:31.552Z,96959.88
2022-10-01T21:20:15.811Z,96959.86
2022-10-01T21:23:03.482Z,96965.69
2022-10-01T21:25:48.308Z,96965.98
2022-10-01T21:28:39.587Z,96964.57
2022-10-01T21:31:22.368Z,96971.33
2022-10-01T21:34:03.370Z,96973.06
2022-10-01T21:36:39.990Z,96974.67
2022-10-01T21:39:25.328Z,96970.48
2022-10-01T21:42:05.950Z,96974.54
2022-10-01T21:45:01.598Z,96975.84
2022-10-01T21:47:51.350Z,96976.09
2022-10-01T21:50:35.929Z,96975.88
2022-10-01T21:53:33.821Z,96977.81
2022-10-01T21:56:21.150Z,96980.79
2022-10-01T21:59:07.130Z,96983.83
2022-10-01T22:02:04.814Z,96988.92
2022-10-01T22:04:46.371Z,96992.73
2022-10-01T22:07:28.398Z,96991.70
2022-10-01T22:10:10.689Z,96992.46
2022-10-01T22:12:46.940Z,96988.95
2022-10-01T22:15:25.650Z,96987.96
2022-10-01T22:17:59.722Z,96989.23
2022-10-01T22:20:36.014Z,96991.23
2022-10-01T22:23:14.097Z,96985.91
2022-10-01T22:25:52.760Z,96986.31
2022-10-01T22:28:35.830Z,96988.17
2022-10-01T22:31:12.797Z,96988.05
2022-10-01T22:33:50.601Z,96986.20
2022-10-01T22:36:32.337Z,96987.06
2022-10-01T22:39:09.550Z,96989.16
2022-10-01T22:41:47.631Z,96991.02
2022-10-01T22:44:22.470Z,96989.52
2022-10-01T22:47:32.840Z,96989.95
2022-10-01T22:50:33.068Z,96996.98
2022-10-01T22:53:19.600Z,96997.11
2022-10-01T22:55:56.841Z,96999.02
2022-10-01T22:58:54.011Z,96995.83
2022-10-01T23:01:34.170Z,96997.63
2022-10-01T23:04:19.440Z,96999.74
2022-10-01T23:07:02.888Z,97003.58
2022-10-01T23:09:41.510Z,97005.67
2022-10-01T23:12:24.171Z,97010.31
2022-10-01T23:15:08.001Z,97009.45
2022-10-01T23:17:46.990Z,97015.40
2022-10-01T23:20:31.070Z,97015.73
2022-10-01T23:23:08.350Z,97015.38
2022-10-01T23:25:51.700Z,97017.30
2022-10-01T23:28:35.680Z,97016.87
2022-10-01T23:31:18.286Z,97019.55
2022-10-01T23:34:03.200Z,97016.11
2022-10-01T23:36:42.987Z,97021.55
2022-10-01T23:39:42.930Z,97024.58
2022-10-01T23:42:25.350Z,97022.34
2022-10-01T23:45:11.287Z,97025.78
2022-10-01T23:47:48.611Z,97025.06
2022-10-01T23:50:38.922Z,97025.40
2022-10-01T23:53:19.199Z,97034.73
2022-10-01T23:56:36.017Z,97036.05
2022-10-01T23:59:30.126Z,97039.84
